sensor_id;sensor_type;location;lat;lon;timestamp;P1;durP1;ratioP1;P2;durP2;ratioP2
5951;SDS011;3001;42.622;23.194;2022-12-11T00:01:49;2.90;;;2.70;;
5951;SDS011;3001;42.622;23.194;2022-12-11T00:04:15;3.77;;;2.90;;
5951;SDS011;3001;42.622;23.194;2022-12-11T00:06:42;5.27;;;2.97;;
5951;SDS011;3001;42.622;23.194;2022-12-11T00:09:09;2.17;;;2.03;;
5951;SDS011;3001;42.622;23.194;2022-12-11T00:11:36;3.87;;;2.40;;
5951;SDS011;3001;42.622;23.194;2022-12-11T00:14:03;9.87;;;4.80;;
5951;SDS011;3001;42.622;23.194;2022-12-11T00:16:29;6.43;;;2.83;;
5951;SDS011;3001;42.622;23.194;2022-12-11T00:18:57;7.30;;;5.33;;
5951;SDS011;3001;42.622;23.194;2022-12-11T00:21:24;7.37;;;2.93;;
5951;SDS011;3001;42.622;23.194;2022-12-11T00:23:51;2.93;;;1.87;;
5951;SDS011;3001;42.622;23.194;2022-12-11T00:26:18;3.07;;;2.20;;
5951;SDS011;3001;42.622;23.194;2022-12-11T00:28:45;1.60;;;1.50;;
5951;SDS011;3001;42.622;23.194;2022-12-11T00:31:13;7.40;;;1.83;;
5951;SDS011;3001;42.622;23.194;2022-12-11T00:33:41;2.47;;;1.27;;
5951;SDS011;3001;42.622;23.194;2022-12-11T00:36:11;5.20;;;1.37;;
5951;SDS011;3001;42.622;23.194;2022-12-11T00:38:39;2.43;;;1.10;;
5951;SDS011;3001;42.622;23.194;2022-12-11T00:41:06;1.50;;;1.40;;
5951;SDS011;3001;42.622;23.194;2022-12-11T00:43:33;2.40;;;0.80;;
5951;SDS011;3001;42.622;23.194;2022-12-11T00:46:00;0.60;;;0.60;;
5951;SDS011;3001;42.622;23.194;2022-12-11T00:48:27;1.17;;;0.90;;
5951;SDS011;3001;42.622;23.194;2022-12-11T00:50:54;3.33;;;0.93;;
5951;SDS011;3001;42.622;23.194;2022-12-11T00:53:22;0.97;;;0.73;;
5951;SDS011;3001;42.622;23.194;2022-12-11T00:55:49;3.20;;;1.30;;
5951;SDS011;3001;42.622;23.194;2022-12-11T00:58:16;3.13;;;0.90;;
5951;SDS011;3001;42.622;23.194;2022-12-11T01:00:43;1.10;;;0.90;;
5951;SDS011;3001;42.622;23.194;2022-12-11T01:03:12;3.53;;;1.70;;
5951;SDS011;3001;42.622;23.194;2022-12-11T01:05:39;7.63;;;1.80;;
5951;SDS011;3001;42.622;23.194;2022-12-11T01:08:06;3.33;;;1.43;;
5951;SDS011;3001;42.622;23.194;2022-12-11T01:10:34;1.10;;;1.00;;
5951;SDS011;3001;42.622;23.194;2022-12-11T01:13:02;1.17;;;1.00;;
5951;SDS011;3001;42.622;23.194;2022-12-11T01:15:31;1.63;;;1.17;;
5951;SDS011;3001;42.622;23.194;2022-12-11T01:18:00;4.50;;;1.10;;
5951;SDS011;3001;42.622;23.194;2022-12-11T01:20:27;2.80;;;1.67;;
5951;SDS011;3001;42.622;23.194;2022-12-11T01:22:54;2.50;;;1.20;;
5951;SDS011;3001;42.622;23.194;2022-12-11T01:25:22;1.00;;;0.77;;
5951;SDS011;3001;42.622;23.194;2022-12-11T01:27:51;4.43;;;1.03;;
5951;SDS011;3001;42.622;23.194;2022-12-11T01:30:19;0.83;;;0.83;;
5951;SDS011;3001;42.622;23.194;2022-12-11T01:32:46;1.37;;;0.70;;
5951;SDS011;3001;42.622;23.194;2022-12-11T01:35:14;1.07;;;0.70;;
5951;SDS011;3001;42.622;23.194;2022-12-11T01:37:41;0.70;;;0.67;;
5951;SDS011;3001;42.622;23.194;2022-12-11T01:40:08;2.73;;;0.77;;
5951;SDS011;3001;42.622;23.194;2022-12-11T01:42:37;0.50;;;0.50;;
5951;SDS011;3001;42.622;23.194;2022-12-11T01:48:02;0.70;;;0.63;;
5951;SDS011;3001;42.622;23.194;2022-12-11T01:50:32;0.20;;;0.20;;
5951;SDS011;3001;42.622;23.194;2022-12-11T01:53:01;2.60;;;0.63;;
5951;SDS011;3001;42.622;23.194;2022-12-11T01:55:32;0.27;;;0.20;;
5951;SDS011;3001;42.622;23.194;2022-12-11T01:57:59;0.10;;;0.10;;
5951;SDS011;3001;42.622;23.194;2022-12-11T02:00:27;0.60;;;0.60;;
5951;SDS011;3001;42.622;23.194;2022-12-11T02:02:54;0.63;;;0.30;;
5951;SDS011;3001;42.622;23.194;2022-12-11T02:05:22;2.47;;;0.67;;
5951;SDS011;3001;42.622;23.194;2022-12-11T02:07:50;1.37;;;1.13;;
5951;SDS011;3001;42.622;23.194;2022-12-11T02:10:20;0.50;;;0.50;;
5951;SDS011;3001;42.622;23.194;2022-12-11T02:12:53;1.60;;;0.80;;
5951;SDS011;3001;42.622;23.194;2022-12-11T02:15:26;1.20;;;1.10;;
5951;SDS011;3001;42.622;23.194;2022-12-11T02:18:06;3.03;;;1.07;;
5951;SDS011;3001;42.622;23.194;2022-12-11T02:20:42;1.77;;;0.30;;
5951;SDS011;3001;42.622;23.194;2022-12-11T02:26:11;0.60;;;0.50;;
5951;SDS011;3001;42.622;23.194;2022-12-11T02:28:51;3.23;;;0.70;;
5951;SDS011;3001;42.622;23.194;2022-12-11T02:31:22;2.93;;;1.83;;
5951;SDS011;3001;42.622;23.194;2022-12-11T02:33:54;2.70;;;1.60;;
5951;SDS011;3001;42.622;23.194;2022-12-11T02:36:27;3.03;;;1.90;;
5951;SDS011;3001;42.622;23.194;2022-12-11T02:38:57;1.80;;;1.70;;
5951;SDS011;3001;42.622;23.194;2022-12-11T02:41:26;1.77;;;1.10;;
5951;SDS011;3001;42.622;23.194;2022-12-11T02:43:56;1.43;;;1.33;;
5951;SDS011;3001;42.622;23.194;2022-12-11T02:46:24;2.33;;;1.60;;
5951;SDS011;3001;42.622;23.194;2022-12-11T02:48:52;3.03;;;1.20;;
5951;SDS011;3001;42.622;23.194;2022-12-11T02:51:22;2.13;;;1.00;;
5951;SDS011;3001;42.622;23.194;2022-12-11T02:53:53;2.20;;;0.93;;
5951;SDS011;3001;42.622;23.194;2022-12-11T02:56:25;1.00;;;1.00;;
5951;SDS011;3001;42.622;23.194;2022-12-11T02:58:56;0.90;;;0.70;;
5951;SDS011;3001;42.622;23.194;2022-12-11T03:01:26;2.23;;;0.93;;
5951;SDS011;3001;42.622;23.194;2022-12-11T03:03:53;1.20;;;0.90;;
5951;SDS011;3001;42.622;23.194;2022-12-11T03:06:23;0.63;;;0.60;;
5951;SDS011;3001;42.622;23.194;2022-12-11T03:08:54;1.53;;;1.53;;
5951;SDS011;3001;42.622;23.194;2022-12-11T03:11:21;1.63;;;1.53;;
5951;SDS011;3001;42.622;23.194;2022-12-11T03:13:48;1.20;;;0.80;;
5951;SDS011;3001;42.622;23.194;2022-12-11T03:16:17;0.60;;;0.60;;
5951;SDS011;3001;42.622;23.194;2022-12-11T03:18:51;0.60;;;0.50;;
5951;SDS011;3001;42.622;23.194;2022-12-11T03:21:26;1.80;;;0.60;;
5951;SDS011;3001;42.622;23.194;2022-12-11T03:24:01;0.80;;;0.80;;
5951;SDS011;3001;42.622;23.194;2022-12-11T03:26:34;0.40;;;0.40;;
5951;SDS011;3001;42.622;23.194;2022-12-11T03:29:06;0.67;;;0.67;;
5951;SDS011;3001;42.622;23.194;2022-12-11T03:31:43;1.77;;;0.97;;
5951;SDS011;3001;42.622;23.194;2022-12-11T03:34:17;1.60;;;1.00;;
5951;SDS011;3001;42.622;23.194;2022-12-11T03:36:46;4.27;;;0.80;;
5951;SDS011;3001;42.622;23.194;2022-12-11T03:39:19;4.30;;;1.00;;
5951;SDS011;3001;42.622;23.194;2022-12-11T03:41:48;2.70;;;2.10;;
5951;SDS011;3001;42.622;23.194;2022-12-11T03:44:18;1.70;;;1.60;;
5951;SDS011;3001;42.622;23.194;2022-12-11T03:46:47;2.67;;;1.17;;
5951;SDS011;3001;42.622;23.194;2022-12-11T03:49:18;2.77;;;2.50;;
5951;SDS011;3001;42.622;23.194;2022-12-11T03:51:48;2.30;;;1.40;;
5951;SDS011;3001;42.622;23.194;2022-12-11T03:54:18;0.77;;;0.77;;
5951;SDS011;3001;42.622;23.194;2022-12-11T03:56:45;2.07;;;1.13;;
5951;SDS011;3001;42.622;23.194;2022-12-11T03:59:16;1.50;;;1.40;;
5951;SDS011;3001;42.622;23.194;2022-12-11T04:01:43;3.00;;;2.70;;
5951;SDS011;3001;42.622;23.194;2022-12-11T04:04:11;2.43;;;1.13;;
5951;SDS011;3001;42.622;23.194;2022-12-11T04:06:38;2.37;;;1.67;;
5951;SDS011;3001;42.622;23.194;2022-12-11T04:09:04;3.37;;;2.20;;
5951;SDS011;3001;42.622;23.194;2022-12-11T04:11:32;3.20;;;1.50;;
5951;SDS011;3001;42.622;23.194;2022-12-11T04:13:59;3.77;;;1.37;;
5951;SDS011;3001;42.622;23.194;2022-12-11T04:16:43;4.30;;;2.17;;
5951;SDS011;3001;42.622;23.194;2022-12-11T04:19:12;2.70;;;2.10;;
5951;SDS011;3001;42.622;23.194;2022-12-11T04:21:57;3.03;;;2.83;;
5951;SDS011;3001;42.622;23.194;2022-12-11T04:24:40;3.27;;;2.77;;
5951;SDS011;3001;42.622;23.194;2022-12-11T04:27:07;4.80;;;4.10;;
5951;SDS011;3001;42.622;23.194;2022-12-11T04:29:34;5.43;;;3.50;;
5951;SDS011;3001;42.622;23.194;2022-12-11T04:32:01;4.80;;;3.00;;
5951;SDS011;3001;42.622;23.194;2022-12-11T04:34:29;7.80;;;2.10;;
5951;SDS011;3001;42.622;23.194;2022-12-11T04:36:55;1.80;;;1.50;;
5951;SDS011;3001;42.622;23.194;2022-12-11T04:39:22;3.97;;;1.63;;
5951;SDS011;3001;42.622;23.194;2022-12-11T04:41:49;4.80;;;2.43;;
5951;SDS011;3001;42.622;23.194;2022-12-11T04:44:16;3.73;;;2.20;;
5951;SDS011;3001;42.622;23.194;2022-12-11T04:46:42;2.13;;;1.17;;
5951;SDS011;3001;42.622;23.194;2022-12-11T04:49:09;2.73;;;1.10;;
5951;SDS011;3001;42.622;23.194;2022-12-11T04:51:38;3.27;;;3.03;;
5951;SDS011;3001;42.622;23.194;2022-12-11T04:54:04;4.50;;;4.03;;
5951;SDS011;3001;42.622;23.194;2022-12-11T04:56:31;4.00;;;3.17;;
5951;SDS011;3001;42.622;23.194;2022-12-11T04:58:58;3.07;;;2.50;;
5951;SDS011;3001;42.622;23.194;2022-12-11T05:01:24;3.23;;;2.60;;
5951;SDS011;3001;42.622;23.194;2022-12-11T05:03:51;7.43;;;2.90;;
5951;SDS011;3001;42.622;23.194;2022-12-11T05:06:18;2.77;;;1.90;;
5951;SDS011;3001;42.622;23.194;2022-12-11T05:08:46;3.13;;;1.47;;
5951;SDS011;3001;42.622;23.194;2022-12-11T05:11:13;4.93;;;2.20;;
5951;SDS011;3001;42.622;23.194;2022-12-11T05:13:41;3.83;;;2.67;;
5951;SDS011;3001;42.622;23.194;2022-12-11T05:16:09;5.13;;;2.20;;
5951;SDS011;3001;42.622;23.194;2022-12-11T05:18:38;2.53;;;2.00;;
5951;SDS011;3001;42.622;23.194;2022-12-11T05:21:06;3.40;;;3.13;;
5951;SDS011;3001;42.622;23.194;2022-12-11T05:23:34;1.50;;;1.40;;
5951;SDS011;3001;42.622;23.194;2022-12-11T05:26:03;2.37;;;1.60;;
5951;SDS011;3001;42.622;23.194;2022-12-11T05:28:33;2.10;;;1.63;;
5951;SDS011;3001;42.622;23.194;2022-12-11T05:31:01;4.03;;;1.57;;
5951;SDS011;3001;42.622;23.194;2022-12-11T05:33:30;2.27;;;1.40;;
5951;SDS011;3001;42.622;23.194;2022-12-11T05:35:58;5.60;;;3.33;;
5951;SDS011;3001;42.622;23.194;2022-12-11T05:38:25;2.87;;;2.20;;
5951;SDS011;3001;42.622;23.194;2022-12-11T05:40:55;7.47;;;2.10;;
5951;SDS011;3001;42.622;23.194;2022-12-11T05:43:25;4.00;;;2.50;;
5951;SDS011;3001;42.622;23.194;2022-12-11T05:45:53;4.53;;;3.43;;
5951;SDS011;3001;42.622;23.194;2022-12-11T05:48:21;3.60;;;3.23;;
5951;SDS011;3001;42.622;23.194;2022-12-11T05:50:57;4.87;;;2.20;;
5951;SDS011;3001;42.622;23.194;2022-12-11T05:53:25;5.13;;;2.50;;
5951;SDS011;3001;42.622;23.194;2022-12-11T05:55:52;6.13;;;2.03;;
5951;SDS011;3001;42.622;23.194;2022-12-11T05:58:19;6.13;;;2.90;;
5951;SDS011;3001;42.622;23.194;2022-12-11T06:00:48;3.40;;;2.20;;
5951;SDS011;3001;42.622;23.194;2022-12-11T06:03:14;6.33;;;2.27;;
5951;SDS011;3001;42.622;23.194;2022-12-11T06:05:41;6.17;;;2.50;;
5951;SDS011;3001;42.622;23.194;2022-12-11T06:08:08;2.97;;;1.63;;
5951;SDS011;3001;42.622;23.194;2022-12-11T06:10:35;1.43;;;1.30;;
5951;SDS011;3001;42.622;23.194;2022-12-11T06:13:02;4.50;;;2.30;;
5951;SDS011;3001;42.622;23.194;2022-12-11T06:15:29;3.60;;;2.93;;
5951;SDS011;3001;42.622;23.194;2022-12-11T06:17:57;3.17;;;1.77;;
5951;SDS011;3001;42.622;23.194;2022-12-11T06:20:24;3.60;;;1.80;;
5951;SDS011;3001;42.622;23.194;2022-12-11T06:22:51;5.17;;;1.80;;
5951;SDS011;3001;42.622;23.194;2022-12-11T06:25:17;1.77;;;1.67;;
5951;SDS011;3001;42.622;23.194;2022-12-11T06:27:44;8.80;;;3.57;;
5951;SDS011;3001;42.622;23.194;2022-12-11T06:30:11;4.97;;;2.70;;
5951;SDS011;3001;42.622;23.194;2022-12-11T06:32:38;2.20;;;1.60;;
5951;SDS011;3001;42.622;23.194;2022-12-11T06:35:07;7.97;;;2.67;;
5951;SDS011;3001;42.622;23.194;2022-12-11T06:37:35;3.10;;;1.70;;
5951;SDS011;3001;42.622;23.194;2022-12-11T06:40:02;6.10;;;2.10;;
5951;SDS011;3001;42.622;23.194;2022-12-11T06:42:30;3.33;;;2.17;;
5951;SDS011;3001;42.622;23.194;2022-12-11T06:44:57;5.90;;;2.30;;
5951;SDS011;3001;42.622;23.194;2022-12-11T06:47:24;7.57;;;2.87;;
5951;SDS011;3001;42.622;23.194;2022-12-11T06:49:51;5.87;;;2.33;;
5951;SDS011;3001;42.622;23.194;2022-12-11T06:52:20;5.13;;;2.00;;
5951;SDS011;3001;42.622;23.194;2022-12-11T06:54:47;2.67;;;2.43;;
5951;SDS011;3001;42.622;23.194;2022-12-11T06:57:14;3.90;;;1.97;;
5951;SDS011;3001;42.622;23.194;2022-12-11T06:59:40;4.50;;;2.97;;
5951;SDS011;3001;42.622;23.194;2022-12-11T07:02:08;3.33;;;2.93;;
5951;SDS011;3001;42.622;23.194;2022-12-11T07:04:37;5.83;;;2.60;;
5951;SDS011;3001;42.622;23.194;2022-12-11T07:07:04;6.23;;;2.80;;
5951;SDS011;3001;42.622;23.194;2022-12-11T07:09:32;7.03;;;2.60;;
5951;SDS011;3001;42.622;23.194;2022-12-11T07:11:59;6.70;;;2.87;;
5951;SDS011;3001;42.622;23.194;2022-12-11T07:14:25;7.77;;;2.80;;
5951;SDS011;3001;42.622;23.194;2022-12-11T07:16:52;3.93;;;2.40;;
5951;SDS011;3001;42.622;23.194;2022-12-11T07:19:19;4.43;;;3.43;;
5951;SDS011;3001;42.622;23.194;2022-12-11T07:21:45;3.53;;;2.37;;
5951;SDS011;3001;42.622;23.194;2022-12-11T07:24:12;7.53;;;3.60;;
5951;SDS011;3001;42.622;23.194;2022-12-11T07:26:40;4.97;;;3.07;;
5951;SDS011;3001;42.622;23.194;2022-12-11T07:29:07;7.63;;;1.73;;
5951;SDS011;3001;42.622;23.194;2022-12-11T07:31:34;8.63;;;3.43;;
5951;SDS011;3001;42.622;23.194;2022-12-11T07:34:02;3.80;;;1.83;;
5951;SDS011;3001;42.622;23.194;2022-12-11T07:36:31;4.80;;;3.00;;
5951;SDS011;3001;42.622;23.194;2022-12-11T07:38:58;8.37;;;4.37;;
5951;SDS011;3001;42.622;23.194;2022-12-11T07:41:26;9.00;;;3.53;;
5951;SDS011;3001;42.622;23.194;2022-12-11T07:43:54;8.07;;;4.00;;
5951;SDS011;3001;42.622;23.194;2022-12-11T07:46:22;7.07;;;3.93;;
5951;SDS011;3001;42.622;23.194;2022-12-11T07:48:50;9.83;;;4.50;;
5951;SDS011;3001;42.622;23.194;2022-12-11T07:51:17;3.80;;;2.20;;
5951;SDS011;3001;42.622;23.194;2022-12-11T07:53:47;7.90;;;2.63;;
5951;SDS011;3001;42.622;23.194;2022-12-11T07:56:15;3.90;;;2.10;;
5951;SDS011;3001;42.622;23.194;2022-12-11T07:58:43;3.43;;;2.27;;
5951;SDS011;3001;42.622;23.194;2022-12-11T08:01:12;4.13;;;2.37;;
5951;SDS011;3001;42.622;23.194;2022-12-11T08:03:40;2.93;;;2.40;;
5951;SDS011;3001;42.622;23.194;2022-12-11T08:06:07;9.20;;;3.80;;
5951;SDS011;3001;42.622;23.194;2022-12-11T08:08:34;5.77;;;3.23;;
5951;SDS011;3001;42.622;23.194;2022-12-11T08:11:00;8.50;;;3.10;;
5951;SDS011;3001;42.622;23.194;2022-12-11T08:13:27;3.27;;;2.97;;
5951;SDS011;3001;42.622;23.194;2022-12-11T08:15:54;3.33;;;2.00;;
5951;SDS011;3001;42.622;23.194;2022-12-11T08:18:22;4.43;;;3.50;;
5951;SDS011;3001;42.622;23.194;2022-12-11T08:20:49;2.70;;;2.47;;
5951;SDS011;3001;42.622;23.194;2022-12-11T08:23:16;2.83;;;2.63;;
5951;SDS011;3001;42.622;23.194;2022-12-11T08:25:42;4.07;;;2.80;;
5951;SDS011;3001;42.622;23.194;2022-12-11T08:28:09;6.17;;;2.50;;
5951;SDS011;3001;42.622;23.194;2022-12-11T08:30:37;4.90;;;2.13;;
5951;SDS011;3001;42.622;23.194;2022-12-11T08:33:04;3.77;;;3.47;;
5951;SDS011;3001;42.622;23.194;2022-12-11T08:35:33;5.03;;;4.47;;
5951;SDS011;3001;42.622;23.194;2022-12-11T08:38:03;4.23;;;2.70;;
5951;SDS011;3001;42.622;23.194;2022-12-11T08:40:30;5.80;;;3.30;;
5951;SDS011;3001;42.622;23.194;2022-12-11T08:42:57;5.73;;;2.50;;
5951;SDS011;3001;42.622;23.194;2022-12-11T08:45:24;6.67;;;5.90;;
5951;SDS011;3001;42.622;23.194;2022-12-11T08:47:51;7.67;;;6.93;;
5951;SDS011;3001;42.622;23.194;2022-12-11T08:50:18;10.80;;;6.63;;
5951;SDS011;3001;42.622;23.194;2022-12-11T08:52:46;14.13;;;9.23;;
5951;SDS011;3001;42.622;23.194;2022-12-11T08:55:13;9.27;;;6.90;;
5951;SDS011;3001;42.622;23.194;2022-12-11T08:57:40;6.27;;;5.73;;
5951;SDS011;3001;42.622;23.194;2022-12-11T09:00:07;5.13;;;3.50;;
5951;SDS011;3001;42.622;23.194;2022-12-11T09:02:36;6.47;;;5.77;;
5951;SDS011;3001;42.622;23.194;2022-12-11T09:05:04;13.00;;;9.40;;
5951;SDS011;3001;42.622;23.194;2022-12-11T09:07:32;8.20;;;7.20;;
5951;SDS011;3001;42.622;23.194;2022-12-11T09:10:00;10.63;;;6.40;;
5951;SDS011;3001;42.622;23.194;2022-12-11T09:12:27;5.87;;;3.40;;
5951;SDS011;3001;42.622;23.194;2022-12-11T09:14:54;3.93;;;3.63;;
5951;SDS011;3001;42.622;23.194;2022-12-11T09:17:21;6.83;;;3.30;;
5951;SDS011;3001;42.622;23.194;2022-12-11T09:19:47;7.00;;;5.20;;
5951;SDS011;3001;42.622;23.194;2022-12-11T09:22:14;5.47;;;4.60;;
5951;SDS011;3001;42.622;23.194;2022-12-11T09:24:41;18.43;;;9.87;;
5951;SDS011;3001;42.622;23.194;2022-12-11T09:27:09;6.20;;;5.60;;
5951;SDS011;3001;42.622;23.194;2022-12-11T09:29:35;4.17;;;3.73;;
5951;SDS011;3001;42.622;23.194;2022-12-11T09:32:03;5.23;;;3.53;;
5951;SDS011;3001;42.622;23.194;2022-12-11T09:34:31;9.73;;;3.80;;
5951;SDS011;3001;42.622;23.194;2022-12-11T09:36:57;15.37;;;9.77;;
5951;SDS011;3001;42.622;23.194;2022-12-11T09:39:24;64.57;;;31.87;;
5951;SDS011;3001;42.622;23.194;2022-12-11T09:41:52;62.53;;;35.73;;
5951;SDS011;3001;42.622;23.194;2022-12-11T09:44:30;11.30;;;7.33;;
5951;SDS011;3001;42.622;23.194;2022-12-11T09:47:00;7.27;;;5.23;;
5951;SDS011;3001;42.622;23.194;2022-12-11T09:49:30;2.50;;;2.37;;
5951;SDS011;3001;42.622;23.194;2022-12-11T09:52:09;6.40;;;2.97;;
5951;SDS011;3001;42.622;23.194;2022-12-11T09:54:42;3.30;;;3.00;;
5951;SDS011;3001;42.622;23.194;2022-12-11T09:57:17;4.67;;;2.20;;
5951;SDS011;3001;42.622;23.194;2022-12-11T09:59:59;3.87;;;3.43;;
5951;SDS011;3001;42.622;23.194;2022-12-11T10:02:38;4.10;;;3.80;;
5951;SDS011;3001;42.622;23.194;2022-12-11T10:05:21;3.30;;;3.10;;
5951;SDS011;3001;42.622;23.194;2022-12-11T10:07:59;3.63;;;2.57;;
5951;SDS011;3001;42.622;23.194;2022-12-11T10:10:33;4.10;;;2.47;;
5951;SDS011;3001;42.622;23.194;2022-12-11T10:13:14;3.17;;;1.90;;
5951;SDS011;3001;42.622;23.194;2022-12-11T10:15:50;1.27;;;1.17;;
5951;SDS011;3001;42.622;23.194;2022-12-11T10:18:22;3.73;;;3.33;;
5951;SDS011;3001;42.622;23.194;2022-12-11T10:20:51;2.80;;;2.10;;
5951;SDS011;3001;42.622;23.194;2022-12-11T10:23:21;2.93;;;2.40;;
5951;SDS011;3001;42.622;23.194;2022-12-11T10:25:52;3.67;;;2.10;;
5951;SDS011;3001;42.622;23.194;2022-12-11T10:28:25;4.57;;;2.33;;
5951;SDS011;3001;42.622;23.194;2022-12-11T10:30:56;2.43;;;1.70;;
5951;SDS011;3001;42.622;23.194;2022-12-11T10:33:32;5.33;;;4.90;;
5951;SDS011;3001;42.622;23.194;2022-12-11T10:36:01;3.90;;;1.80;;
5951;SDS011;3001;42.622;23.194;2022-12-11T10:38:28;4.70;;;4.37;;
5951;SDS011;3001;42.622;23.194;2022-12-11T10:40:58;5.63;;;4.77;;
5951;SDS011;3001;42.622;23.194;2022-12-11T10:43:31;4.70;;;4.17;;
5951;SDS011;3001;42.622;23.194;2022-12-11T10:46:01;4.73;;;4.43;;
5951;SDS011;3001;42.622;23.194;2022-12-11T10:48:29;10.30;;;9.20;;
5951;SDS011;3001;42.622;23.194;2022-12-11T10:50:57;8.93;;;8.03;;
5951;SDS011;3001;42.622;23.194;2022-12-11T10:53:26;8.47;;;7.77;;
5951;SDS011;3001;42.622;23.194;2022-12-11T10:55:54;8.03;;;5.77;;
5951;SDS011;3001;42.622;23.194;2022-12-11T10:58:23;8.03;;;6.50;;
5951;SDS011;3001;42.622;23.194;2022-12-11T11:00:59;7.90;;;7.20;;
5951;SDS011;3001;42.622;23.194;2022-12-11T11:03:30;8.63;;;7.93;;
5951;SDS011;3001;42.622;23.194;2022-12-11T11:06:02;14.60;;;12.87;;
5951;SDS011;3001;42.622;23.194;2022-12-11T11:08:36;10.93;;;9.77;;
5951;SDS011;3001;42.622;23.194;2022-12-11T11:11:05;12.87;;;11.57;;
5951;SDS011;3001;42.622;23.194;2022-12-11T11:13:33;5.33;;;4.60;;
5951;SDS011;3001;42.622;23.194;2022-12-11T11:16:00;2.90;;;2.80;;
5951;SDS011;3001;42.622;23.194;2022-12-11T11:18:30;3.70;;;2.60;;
5951;SDS011;3001;42.622;23.194;2022-12-11T11:20:58;5.90;;;3.30;;
5951;SDS011;3001;42.622;23.194;2022-12-11T11:23:27;3.60;;;2.73;;
5951;SDS011;3001;42.622;23.194;2022-12-11T11:25:55;4.63;;;4.07;;
5951;SDS011;3001;42.622;23.194;2022-12-11T11:28:24;9.53;;;7.70;;
5951;SDS011;3001;42.622;23.194;2022-12-11T11:30:54;8.23;;;5.37;;
5951;SDS011;3001;42.622;23.194;2022-12-11T11:33:25;9.17;;;7.50;;
5951;SDS011;3001;42.622;23.194;2022-12-11T11:35:54;3.47;;;2.20;;
5951;SDS011;3001;42.622;23.194;2022-12-11T11:38:22;7.13;;;3.07;;
5951;SDS011;3001;42.622;23.194;2022-12-11T11:40:53;7.77;;;6.97;;
5951;SDS011;3001;42.622;23.194;2022-12-11T11:43:26;9.10;;;7.60;;
5951;SDS011;3001;42.622;23.194;2022-12-11T11:46:01;14.10;;;7.13;;
5951;SDS011;3001;42.622;23.194;2022-12-11T11:48:34;12.43;;;10.87;;
5951;SDS011;3001;42.622;23.194;2022-12-11T11:51:07;10.33;;;8.00;;
5951;SDS011;3001;42.622;23.194;2022-12-11T11:53:40;6.47;;;5.40;;
5951;SDS011;3001;42.622;23.194;2022-12-11T11:56:17;24.57;;;12.20;;
5951;SDS011;3001;42.622;23.194;2022-12-11T11:58:49;62.20;;;21.70;;
5951;SDS011;3001;42.622;23.194;2022-12-11T12:01:23;22.83;;;11.90;;
5951;SDS011;3001;42.622;23.194;2022-12-11T12:03:54;12.57;;;8.57;;
5951;SDS011;3001;42.622;23.194;2022-12-11T12:06:25;31.20;;;17.20;;
5951;SDS011;3001;42.622;23.194;2022-12-11T12:09:02;5.00;;;4.50;;
5951;SDS011;3001;42.622;23.194;2022-12-11T12:11:41;5.97;;;4.80;;
5951;SDS011;3001;42.622;23.194;2022-12-11T12:14:16;11.27;;;5.10;;
5951;SDS011;3001;42.622;23.194;2022-12-11T12:16:52;5.70;;;3.93;;
5951;SDS011;3001;42.622;23.194;2022-12-11T12:19:42;3.73;;;2.53;;
5951;SDS011;3001;42.622;23.194;2022-12-11T12:22:17;4.60;;;3.60;;
5951;SDS011;3001;42.622;23.194;2022-12-11T12:24:58;5.63;;;5.10;;
5951;SDS011;3001;42.622;23.194;2022-12-11T12:27:36;9.23;;;6.93;;
5951;SDS011;3001;42.622;23.194;2022-12-11T12:30:11;10.03;;;6.63;;
5951;SDS011;3001;42.622;23.194;2022-12-11T12:32:43;24.30;;;12.70;;
5951;SDS011;3001;42.622;23.194;2022-12-11T12:35:26;26.77;;;13.77;;
5951;SDS011;3001;42.622;23.194;2022-12-11T12:38:01;23.90;;;15.17;;
5951;SDS011;3001;42.622;23.194;2022-12-11T12:40:33;23.77;;;14.30;;
5951;SDS011;3001;42.622;23.194;2022-12-11T12:43:09;40.53;;;19.63;;
5951;SDS011;3001;42.622;23.194;2022-12-11T12:45:50;9.90;;;8.47;;
5951;SDS011;3001;42.622;23.194;2022-12-11T12:48:24;24.50;;;14.57;;
5951;SDS011;3001;42.622;23.194;2022-12-11T12:50:53;6.53;;;6.03;;
5951;SDS011;3001;42.622;23.194;2022-12-11T12:53:22;11.03;;;8.17;;
5951;SDS011;3001;42.622;23.194;2022-12-11T12:55:52;15.23;;;11.60;;
5951;SDS011;3001;42.622;23.194;2022-12-11T12:58:26;7.83;;;7.00;;
5951;SDS011;3001;42.622;23.194;2022-12-11T13:01:04;8.33;;;7.50;;
5951;SDS011;3001;42.622;23.194;2022-12-11T13:03:34;16.90;;;15.03;;
5951;SDS011;3001;42.622;23.194;2022-12-11T13:06:04;12.83;;;11.60;;
5951;SDS011;3001;42.622;23.194;2022-12-11T13:08:35;11.67;;;10.70;;
5951;SDS011;3001;42.622;23.194;2022-12-11T13:11:07;10.00;;;8.70;;
5951;SDS011;3001;42.622;23.194;2022-12-11T13:13:37;6.90;;;5.53;;
5951;SDS011;3001;42.622;23.194;2022-12-11T13:16:07;4.37;;;4.07;;
5951;SDS011;3001;42.622;23.194;2022-12-11T13:18:49;7.10;;;6.00;;
5951;SDS011;3001;42.622;23.194;2022-12-11T13:21:29;5.20;;;4.70;;
5951;SDS011;3001;42.622;23.194;2022-12-11T13:24:14;9.80;;;8.57;;
5951;SDS011;3001;42.622;23.194;2022-12-11T13:26:49;9.30;;;7.60;;
5951;SDS011;3001;42.622;23.194;2022-12-11T13:29:30;4.60;;;4.30;;
5951;SDS011;3001;42.622;23.194;2022-12-11T13:31:59;7.80;;;5.67;;
5951;SDS011;3001;42.622;23.194;2022-12-11T13:34:31;6.20;;;3.47;;
5951;SDS011;3001;42.622;23.194;2022-12-11T13:37:00;10.17;;;6.70;;
5951;SDS011;3001;42.622;23.194;2022-12-11T13:39:30;12.90;;;9.17;;
5951;SDS011;3001;42.622;23.194;2022-12-11T13:42:00;8.90;;;7.43;;
5951;SDS011;3001;42.622;23.194;2022-12-11T13:44:28;9.10;;;7.63;;
5951;SDS011;3001;42.622;23.194;2022-12-11T13:46:59;2.57;;;2.37;;
5951;SDS011;3001;42.622;23.194;2022-12-11T13:49:28;7.60;;;5.17;;
5951;SDS011;3001;42.622;23.194;2022-12-11T13:52:01;4.17;;;3.77;;
5951;SDS011;3001;42.622;23.194;2022-12-11T13:54:30;1.50;;;1.40;;
5951;SDS011;3001;42.622;23.194;2022-12-11T13:56:59;5.60;;;5.13;;
5951;SDS011;3001;42.622;23.194;2022-12-11T13:59:29;3.70;;;3.40;;
5951;SDS011;3001;42.622;23.194;2022-12-11T14:02:00;8.83;;;7.97;;
5951;SDS011;3001;42.622;23.194;2022-12-11T14:04:30;14.93;;;12.60;;
5951;SDS011;3001;42.622;23.194;2022-12-11T14:06:59;18.07;;;15.63;;
5951;SDS011;3001;42.622;23.194;2022-12-11T14:09:31;14.00;;;12.53;;
5951;SDS011;3001;42.622;23.194;2022-12-11T14:11:58;14.30;;;11.93;;
5951;SDS011;3001;42.622;23.194;2022-12-11T14:14:28;4.93;;;4.63;;
5951;SDS011;3001;42.622;23.194;2022-12-11T14:17:03;2.90;;;2.70;;
5951;SDS011;3001;42.622;23.194;2022-12-11T14:19:30;2.47;;;1.37;;
5951;SDS011;3001;42.622;23.194;2022-12-11T14:21:58;0.37;;;0.33;;
5951;SDS011;3001;42.622;23.194;2022-12-11T14:24:28;0.20;;;0.20;;
5951;SDS011;3001;42.622;23.194;2022-12-11T14:26:55;0.93;;;0.93;;
5951;SDS011;3001;42.622;23.194;2022-12-11T14:29:23;0.70;;;0.60;;
5951;SDS011;3001;42.622;23.194;2022-12-11T14:31:56;0.50;;;0.50;;
5951;SDS011;3001;42.622;23.194;2022-12-11T14:34:28;1.27;;;0.60;;
5951;SDS011;3001;42.622;23.194;2022-12-11T14:36:57;0.70;;;0.70;;
5951;SDS011;3001;42.622;23.194;2022-12-11T14:39:28;1.10;;;0.77;;
5951;SDS011;3001;42.622;23.194;2022-12-11T14:41:59;1.40;;;1.30;;
5951;SDS011;3001;42.622;23.194;2022-12-11T14:44:31;2.90;;;2.00;;
5951;SDS011;3001;42.622;23.194;2022-12-11T14:47:04;1.87;;;1.70;;
5951;SDS011;3001;42.622;23.194;2022-12-11T14:49:38;2.10;;;1.90;;
5951;SDS011;3001;42.622;23.194;2022-12-11T14:52:12;1.40;;;1.30;;
5951;SDS011;3001;42.622;23.194;2022-12-11T14:54:44;1.30;;;1.20;;
5951;SDS011;3001;42.622;23.194;2022-12-11T14:57:16;1.50;;;1.40;;
5951;SDS011;3001;42.622;23.194;2022-12-11T14:59:46;2.00;;;1.73;;
5951;SDS011;3001;42.622;23.194;2022-12-11T15:02:20;2.87;;;1.83;;
5951;SDS011;3001;42.622;23.194;2022-12-11T15:04:59;2.03;;;1.53;;
5951;SDS011;3001;42.622;23.194;2022-12-11T15:07:30;1.67;;;1.50;;
5951;SDS011;3001;42.622;23.194;2022-12-11T15:09:59;1.53;;;1.43;;
5951;SDS011;3001;42.622;23.194;2022-12-11T15:12:26;1.47;;;1.37;;
5951;SDS011;3001;42.622;23.194;2022-12-11T15:14:53;1.60;;;1.17;;
5951;SDS011;3001;42.622;23.194;2022-12-11T15:17:21;1.03;;;0.90;;
5951;SDS011;3001;42.622;23.194;2022-12-11T15:19:51;0.73;;;0.60;;